sensor_id;sensor_type;location;lat;lon;timestamp;pressure;altitude;pressure_sealevel;temperature;humidity
3968;BME280;9221;42.646;23.380;2023-09-18T00:01:38;94996.03;;;17.75;98.11
3968;BME280;9221;42.646;23.380;2023-09-18T00:04:05;95022.38;;;18.08;97.86
3968;BME280;9221;42.646;23.380;2023-09-18T00:06:32;95018.03;;;18.22;97.29
3968;BME280;9221;42.646;23.380;2023-09-18T00:08:57;95019.22;;;18.20;97.05
3968;BME280;9221;42.646;23.380;2023-09-18T00:11:23;94972.69;;;18.07;96.40
3968;BME280;9221;42.646;23.380;2023-09-18T00:13:48;95011.19;;;18.35;96.08
3968;BME280;9221;42.646;23.380;2023-09-18T00:16:13;95004.47;;;18.39;95.88
3968;BME280;9221;42.646;23.380;2023-09-18T00:18:39;95007.13;;;18.39;95.85
3968;BME280;9221;42.646;23.380;2023-09-18T00:21:04;95010.50;;;18.48;95.53
3968;BME280;9221;42.646;23.380;2023-09-18T00:23:32;94998.22;;;18.32;95.11
3968;BME280;9221;42.646;23.380;2023-09-18T00:25:57;95009.75;;;18.17;96.18
3968;BME280;9221;42.646;23.380;2023-09-18T00:28:23;95049.16;;;17.85;96.46
3968;BME280;9221;42.646;23.380;2023-09-18T00:30:50;95028.91;;;18.06;96.93
3968;BME280;9221;42.646;23.380;2023-09-18T00:33:16;95014.72;;;18.20;97.10
3968;BME280;9221;42.646;23.380;2023-09-18T00:35:48;95004.56;;;18.31;96.40
3968;BME280;9221;42.646;23.380;2023-09-18T00:38:14;95015.41;;;18.44;95.86
3968;BME280;9221;42.646;23.380;2023-09-18T00:40:40;95011.06;;;18.43;95.41
3968;BME280;9221;42.646;23.380;2023-09-18T00:43:05;94960.81;;;18.10;95.01
3968;BME280;9221;42.646;23.380;2023-09-18T00:45:31;95020.81;;;18.51;94.93
3968;BME280;9221;42.646;23.380;2023-09-18T00:47:56;95024.81;;;18.40;95.41
3968;BME280;9221;42.646;23.380;2023-09-18T00:50:22;95014.75;;;18.42;95.29
3968;BME280;9221;42.646;23.380;2023-09-18T00:52:48;95023.53;;;18.36;95.22
3968;BME280;9221;42.646;23.380;2023-09-18T00:55:14;95011.84;;;18.58;94.52
3968;BME280;9221;42.646;23.380;2023-09-18T00:57:41;95012.25;;;18.55;93.56
3968;BME280;9221;42.646;23.380;2023-09-18T01:00:07;95027.94;;;18.65;93.15
3968;BME280;9221;42.646;23.380;2023-09-18T01:02:34;95007.28;;;18.52;93.50
3968;BME280;9221;42.646;23.380;2023-09-18T01:04:59;95023.44;;;18.66;93.23
3968;BME280;9221;42.646;23.380;2023-09-18T01:07:25;95049.00;;;18.75;92.58
3968;BME280;9221;42.646;23.380;2023-09-18T01:09:51;95031.31;;;18.74;92.70
3968;BME280;9221;42.646;23.380;2023-09-18T01:12:23;95016.19;;;18.59;92.47
3968;BME280;9221;42.646;23.380;2023-09-18T01:14:57;95028.56;;;18.46;93.25
3968;BME280;9221;42.646;23.380;2023-09-18T01:17:26;95038.06;;;18.48;93.69
3968;BME280;9221;42.646;23.380;2023-09-18T01:19:52;95038.94;;;18.55;93.19
3968;BME280;9221;42.646;23.380;2023-09-18T01:22:18;95023.88;;;18.69;93.30
3968;BME280;9221;42.646;23.380;2023-09-18T01:24:46;95035.03;;;18.73;91.45
3968;BME280;9221;42.646;23.380;2023-09-18T01:27:16;95030.03;;;18.70;92.06
3968;BME280;9221;42.646;23.380;2023-09-18T01:29:42;95033.75;;;18.69;91.24
3968;BME280;9221;42.646;23.380;2023-09-18T01:32:08;95024.94;;;18.53;91.95
3968;BME280;9221;42.646;23.380;2023-09-18T01:34:39;95030.16;;;18.40;92.88
3968;BME280;9221;42.646;23.380;2023-09-18T01:37:07;95027.59;;;18.32;93.24
3968;BME280;9221;42.646;23.380;2023-09-18T01:39:35;95031.16;;;18.39;93.11
3968;BME280;9221;42.646;23.380;2023-09-18T01:42:03;95032.72;;;18.48;93.17
3968;BME280;9221;42.646;23.380;2023-09-18T01:44:30;95037.75;;;18.58;92.46
3968;BME280;9221;42.646;23.380;2023-09-18T01:46:58;95014.50;;;18.37;92.40
3968;BME280;9221;42.646;23.380;2023-09-18T01:49:36;95044.41;;;18.47;92.60
3968;BME280;9221;42.646;23.380;2023-09-18T01:52:03;95035.94;;;18.43;93.13
3968;BME280;9221;42.646;23.380;2023-09-18T01:54:29;95034.25;;;18.42;93.51
3968;BME280;9221;42.646;23.380;2023-09-18T01:56:55;95036.69;;;18.37;93.77
3968;BME280;9221;42.646;23.380;2023-09-18T01:59:21;95038.63;;;18.29;94.02
3968;BME280;9221;42.646;23.380;2023-09-18T02:01:47;95031.81;;;18.26;94.36
3968;BME280;9221;42.646;23.380;2023-09-18T02:04:12;95030.94;;;18.04;94.88
3968;BME280;9221;42.646;23.380;2023-09-18T02:06:38;95046.91;;;18.34;94.63
3968;BME280;9221;42.646;23.380;2023-09-18T02:09:03;95042.47;;;18.41;93.63
3968;BME280;9221;42.646;23.380;2023-09-18T02:11:29;95025.81;;;18.39;93.19
3968;BME280;9221;42.646;23.380;2023-09-18T02:13:54;95048.47;;;18.43;93.32
3968;BME280;9221;42.646;23.380;2023-09-18T02:16:21;95034.22;;;18.36;92.79
3968;BME280;9221;42.646;23.380;2023-09-18T02:18:49;95043.41;;;18.48;93.14
3968;BME280;9221;42.646;23.380;2023-09-18T02:21:21;95027.84;;;18.37;92.76
3968;BME280;9221;42.646;23.380;2023-09-18T02:23:50;95043.75;;;18.45;92.74
3968;BME280;9221;42.646;23.380;2023-09-18T02:26:19;95056.47;;;18.43;93.26
3968;BME280;9221;42.646;23.380;2023-09-18T02:28:45;95044.34;;;18.25;93.41
3968;BME280;9221;42.646;23.380;2023-09-18T02:31:11;95048.00;;;18.39;92.71
3968;BME280;9221;42.646;23.380;2023-09-18T02:33:37;95040.28;;;18.30;93.06
3968;BME280;9221;42.646;23.380;2023-09-18T02:36:03;95044.25;;;18.34;92.67
3968;BME280;9221;42.646;23.380;2023-09-18T02:38:28;95036.06;;;18.20;92.69
3968;BME280;9221;42.646;23.380;2023-09-18T02:40:55;95041.22;;;18.22;93.12
3968;BME280;9221;42.646;23.380;2023-09-18T02:43:22;95038.94;;;18.04;93.62
3968;BME280;9221;42.646;23.380;2023-09-18T02:45:47;95030.03;;;17.97;94.18
3968;BME280;9221;42.646;23.380;2023-09-18T02:48:13;95030.94;;;18.04;93.92
3968;BME280;9221;42.646;23.380;2023-09-18T02:50:38;95034.06;;;17.92;94.10
3968;BME280;9221;42.646;23.380;2023-09-18T02:53:05;95035.16;;;17.83;94.49
3968;BME280;9221;42.646;23.380;2023-09-18T02:55:32;95036.44;;;17.87;94.93
3968;BME280;9221;42.646;23.380;2023-09-18T02:57:57;94993.75;;;17.57;94.68
3968;BME280;9221;42.646;23.380;2023-09-18T03:00:22;95044.91;;;17.76;95.07
3968;BME280;9221;42.646;23.380;2023-09-18T03:02:48;95042.88;;;17.78;95.27
3968;BME280;9221;42.646;23.380;2023-09-18T03:05:13;95041.56;;;17.74;95.17
3968;BME280;9221;42.646;23.380;2023-09-18T03:07:39;95033.03;;;17.64;95.31
3968;BME280;9221;42.646;23.380;2023-09-18T03:10:05;95046.38;;;17.64;95.95
3968;BME280;9221;42.646;23.380;2023-09-18T03:12:30;95044.91;;;17.76;95.72
3968;BME280;9221;42.646;23.380;2023-09-18T03:14:56;94998.63;;;17.39;95.40
3968;BME280;9221;42.646;23.380;2023-09-18T03:17:22;95068.41;;;17.57;96.19
3968;BME280;9221;42.646;23.380;2023-09-18T03:19:50;95045.44;;;17.56;96.50
3968;BME280;9221;42.646;23.380;2023-09-18T03:22:15;95043.50;;;17.50;96.67
3968;BME280;9221;42.646;23.380;2023-09-18T03:24:41;95040.19;;;17.48;96.86
3968;BME280;9221;42.646;23.380;2023-09-18T03:27:06;95040.13;;;17.56;96.99
3968;BME280;9221;42.646;23.380;2023-09-18T03:29:32;94987.75;;;17.25;96.63
3968;BME280;9221;42.646;23.380;2023-09-18T03:31:57;95025.75;;;17.57;96.37
3968;BME280;9221;42.646;23.380;2023-09-18T03:34:24;95027.22;;;17.45;96.95
3968;BME280;9221;42.646;23.380;2023-09-18T03:36:53;95025.66;;;17.66;96.82
3968;BME280;9221;42.646;23.380;2023-09-18T03:39:19;95037.91;;;17.75;96.09
3968;BME280;9221;42.646;23.380;2023-09-18T03:41:44;95029.00;;;17.83;95.55
3968;BME280;9221;42.646;23.380;2023-09-18T03:44:10;95025.13;;;17.85;95.35
3968;BME280;9221;42.646;23.380;2023-09-18T03:46:35;95023.28;;;17.86;94.68
3968;BME280;9221;42.646;23.380;2023-09-18T03:49:01;95019.72;;;17.93;94.71
3968;BME280;9221;42.646;23.380;2023-09-18T03:51:30;95001.47;;;17.82;94.39
3968;BME280;9221;42.646;23.380;2023-09-18T03:53:56;95014.72;;;17.90;94.55
3968;BME280;9221;42.646;23.380;2023-09-18T03:56:21;95016.75;;;17.88;94.21
3968;BME280;9221;42.646;23.380;2023-09-18T03:58:47;95035.53;;;17.80;94.84
3968;BME280;9221;42.646;23.380;2023-09-18T04:01:15;95031.19;;;17.79;94.63
3968;BME280;9221;42.646;23.380;2023-09-18T04:03:41;95027.59;;;17.72;94.77
3968;BME280;9221;42.646;23.380;2023-09-18T04:06:06;95010.13;;;17.54;95.43
3968;BME280;9221;42.646;23.380;2023-09-18T04:08:32;95029.97;;;17.52;95.89
3968;BME280;9221;42.646;23.380;2023-09-18T04:10:57;95011.97;;;17.39;96.32
3968;BME280;9221;42.646;23.380;2023-09-18T04:13:23;95019.22;;;17.45;96.73
3968;BME280;9221;42.646;23.380;2023-09-18T04:15:49;95026.75;;;17.41;96.95
3968;BME280;9221;42.646;23.380;2023-09-18T04:18:14;95030.31;;;17.34;97.18
3968;BME280;9221;42.646;23.380;2023-09-18T04:20:39;95021.13;;;17.21;98.01
3968;BME280;9221;42.646;23.380;2023-09-18T04:23:25;94923.56;;;16.74;97.65
3968;BME280;9221;42.646;23.380;2023-09-18T04:25:52;95030.88;;;17.44;97.07
3968;BME280;9221;42.646;23.380;2023-09-18T04:28:19;95031.63;;;17.38;97.00
3968;BME280;9221;42.646;23.380;2023-09-18T04:30:45;95034.91;;;17.40;97.24
3968;BME280;9221;42.646;23.380;2023-09-18T04:33:16;95019.63;;;17.19;97.16
3968;BME280;9221;42.646;23.380;2023-09-18T04:35:43;95034.38;;;17.30;97.71
3968;BME280;9221;42.646;23.380;2023-09-18T04:38:08;95061.72;;;17.23;97.83
3968;BME280;9221;42.646;23.380;2023-09-18T04:40:36;95010.59;;;17.05;98.31
3968;BME280;9221;42.646;23.380;2023-09-18T04:43:03;95029.66;;;17.17;98.81
3968;BME280;9221;42.646;23.380;2023-09-18T04:45:30;94997.28;;;16.82;98.55
3968;BME280;9221;42.646;23.380;2023-09-18T04:47:55;95020.13;;;17.22;97.97
3968;BME280;9221;42.646;23.380;2023-09-18T04:50:21;95029.44;;;17.41;97.73
3968;BME280;9221;42.646;23.380;2023-09-18T04:52:47;95036.06;;;17.61;96.94
3968;BME280;9221;42.646;23.380;2023-09-18T04:55:13;95039.81;;;17.51;96.52
3968;BME280;9221;42.646;23.380;2023-09-18T04:57:38;95031.56;;;17.61;96.37
3968;BME280;9221;42.646;23.380;2023-09-18T05:00:06;95037.28;;;17.73;96.29
3968;BME280;9221;42.646;23.380;2023-09-18T05:02:37;95056.22;;;17.78;95.59
3968;BME280;9221;42.646;23.380;2023-09-18T05:05:04;95020.53;;;17.79;95.35
3968;BME280;9221;42.646;23.380;2023-09-18T05:07:29;95033.47;;;17.82;94.65
3968;BME280;9221;42.646;23.380;2023-09-18T05:09:55;95025.75;;;17.87;94.45
3968;BME280;9221;42.646;23.380;2023-09-18T05:12:21;95027.97;;;17.99;94.42
3968;BME280;9221;42.646;23.380;2023-09-18T05:14:47;95027.63;;;18.02;94.16
3968;BME280;9221;42.646;23.380;2023-09-18T05:17:15;95058.19;;;18.14;93.70
3968;BME280;9221;42.646;23.380;2023-09-18T05:19:41;95037.84;;;18.13;93.61
3968;BME280;9221;42.646;23.380;2023-09-18T05:22:08;95048.78;;;18.18;93.53
3968;BME280;9221;42.646;23.380;2023-09-18T05:24:35;95049.69;;;18.10;93.43
3968;BME280;9221;42.646;23.380;2023-09-18T05:27:00;95048.78;;;18.18;93.25
3968;BME280;9221;42.646;23.380;2023-09-18T05:29:26;95040.78;;;18.18;93.20
3968;BME280;9221;42.646;23.380;2023-09-18T05:31:51;95033.91;;;18.46;92.55
3968;BME280;9221;42.646;23.380;2023-09-18T05:34:17;95040.09;;;18.68;92.03
3968;BME280;9221;42.646;23.380;2023-09-18T05:36:42;95038.63;;;18.65;91.50
3968;BME280;9221;42.646;23.380;2023-09-18T05:39:08;95043.66;;;18.75;90.83
3968;BME280;9221;42.646;23.380;2023-09-18T05:41:38;95037.56;;;18.81;90.96
3968;BME280;9221;42.646;23.380;2023-09-18T05:44:04;95042.47;;;18.77;90.40
3968;BME280;9221;42.646;23.380;2023-09-18T05:46:30;95038.84;;;18.85;90.84
3968;BME280;9221;42.646;23.380;2023-09-18T05:48:56;95047.25;;;18.82;90.20
3968;BME280;9221;42.646;23.380;2023-09-18T05:51:22;95049.00;;;18.75;91.29
3968;BME280;9221;42.646;23.380;2023-09-18T05:53:48;95057.53;;;18.64;91.47
3968;BME280;9221;42.646;23.380;2023-09-18T05:56:14;95059.06;;;18.88;91.52
3968;BME280;9221;42.646;23.380;2023-09-18T05:58:42;95058.09;;;18.96;90.90
3968;BME280;9221;42.646;23.380;2023-09-18T06:01:07;95066.75;;;19.19;90.12
3968;BME280;9221;42.646;23.380;2023-09-18T06:03:33;95054.84;;;19.22;89.73
3968;BME280;9221;42.646;23.380;2023-09-18T06:06:02;95056.34;;;19.31;89.52
3968;BME280;9221;42.646;23.380;2023-09-18T06:08:28;95055.94;;;19.27;89.30
3968;BME280;9221;42.646;23.380;2023-09-18T06:10:55;95054.56;;;19.38;89.50
3968;BME280;9221;42.646;23.380;2023-09-18T06:13:21;95049.66;;;19.42;88.89
3968;BME280;9221;42.646;23.380;2023-09-18T06:15:46;95054.72;;;19.58;88.50
3968;BME280;9221;42.646;23.380;2023-09-18T06:18:12;95057.63;;;19.64;87.47
3968;BME280;9221;42.646;23.380;2023-09-18T06:20:38;95054.81;;;19.72;87.08
3968;BME280;9221;42.646;23.380;2023-09-18T06:23:04;95059.88;;;19.88;87.03
3968;BME280;9221;42.646;23.380;2023-09-18T06:25:30;95061.84;;;20.08;85.85
3968;BME280;9221;42.646;23.380;2023-09-18T06:27:56;95061.75;;;20.29;85.41
3968;BME280;9221;42.646;23.380;2023-09-18T06:30:22;95059.78;;;20.45;84.66
3968;BME280;9221;42.646;23.380;2023-09-18T06:32:48;95065.75;;;20.47;83.10
3968;BME280;9221;42.646;23.380;2023-09-18T06:35:13;95029.22;;;20.33;83.30
3968;BME280;9221;42.646;23.380;2023-09-18T06:37:39;95072.97;;;20.46;82.53
3968;BME280;9221;42.646;23.380;2023-09-18T06:40:05;95066.34;;;20.42;83.01
3968;BME280;9221;42.646;23.380;2023-09-18T06:42:31;95088.25;;;20.59;82.09
3968;BME280;9221;42.646;23.380;2023-09-18T06:44:57;95065.25;;;20.78;82.17
3968;BME280;9221;42.646;23.380;2023-09-18T06:47:23;95063.25;;;21.01;81.25
3968;BME280;9221;42.646;23.380;2023-09-18T06:49:49;95074.44;;;21.24;80.16
3968;BME280;9221;42.646;23.380;2023-09-18T06:52:15;95073.59;;;21.30;79.00
3968;BME280;9221;42.646;23.380;2023-09-18T06:54:42;95061.22;;;21.50;78.60
3968;BME280;9221;42.646;23.380;2023-09-18T06:57:09;95051.34;;;21.50;77.78
3968;BME280;9221;42.646;23.380;2023-09-18T06:59:35;95061.47;;;21.75;76.85
3968;BME280;9221;42.646;23.380;2023-09-18T07:02:01;95061.91;;;21.58;76.19
3968;BME280;9221;42.646;23.380;2023-09-18T07:04:26;95082.09;;;21.68;77.33
3968;BME280;9221;42.646;23.380;2023-09-18T07:06:52;95025.50;;;21.76;76.81
3968;BME280;9221;42.646;23.380;2023-09-18T07:09:19;95069.84;;;22.25;74.79
3968;BME280;9221;42.646;23.380;2023-09-18T07:11:48;95058.28;;;22.05;74.44
3968;BME280;9221;42.646;23.380;2023-09-18T07:14:13;95065.06;;;22.27;74.45
3968;BME280;9221;42.646;23.380;2023-09-18T07:16:39;95065.88;;;22.41;73.96
3968;BME280;9221;42.646;23.380;2023-09-18T07:19:04;95035.06;;;22.44;73.54
3968;BME280;9221;42.646;23.380;2023-09-18T07:21:30;95082.50;;;22.70;71.95
3968;BME280;9221;42.646;23.380;2023-09-18T07:23:55;95066.88;;;22.47;72.44
3968;BME280;9221;42.646;23.380;2023-09-18T07:26:21;95053.88;;;22.44;73.01
3968;BME280;9221;42.646;23.380;2023-09-18T07:28:46;95057.81;;;22.35;72.26
3968;BME280;9221;42.646;23.380;2023-09-18T07:31:13;95071.91;;;22.23;73.09
3968;BME280;9221;42.646;23.380;2023-09-18T07:33:40;95054.97;;;22.16;73.61
3968;BME280;9221;42.646;23.380;2023-09-18T07:36:05;95066.81;;;22.60;73.27
3968;BME280;9221;42.646;23.380;2023-09-18T07:38:31;95070.19;;;23.26;71.58
3968;BME280;9221;42.646;23.380;2023-09-18T07:40:56;95075.09;;;23.43;68.79
3968;BME280;9221;42.646;23.380;2023-09-18T07:43:24;95055.44;;;23.36;68.44
3968;BME280;9221;42.646;23.380;2023-09-18T07:45:50;95065.72;;;23.20;69.27
3968;BME280;9221;42.646;23.380;2023-09-18T07:48:16;95076.91;;;22.72;70.35
3968;BME280;9221;42.646;23.380;2023-09-18T07:50:45;95075.69;;;23.13;69.38
3968;BME280;9221;42.646;23.380;2023-09-18T07:53:10;95024.97;;;22.78;69.83
3968;BME280;9221;42.646;23.380;2023-09-18T07:55:35;95070.47;;;23.50;69.05
3968;BME280;9221;42.646;23.380;2023-09-18T07:58:01;95066.16;;;24.18;67.05
3968;BME280;9221;42.646;23.380;2023-09-18T08:00:26;95072.88;;;24.64;64.95
3968;BME280;9221;42.646;23.380;2023-09-18T08:02:54;95017.84;;;25.14;63.32
3968;BME280;9221;42.646;23.380;2023-09-18T08:05:24;95071.97;;;25.74;61.06
3968;BME280;9221;42.646;23.380;2023-09-18T08:07:53;95055.38;;;25.34;60.33
3968;BME280;9221;42.646;23.380;2023-09-18T08:10:21;95061.06;;;25.26;62.51
3968;BME280;9221;42.646;23.380;2023-09-18T08:12:46;95067.13;;;25.40;61.00
3968;BME280;9221;42.646;23.380;2023-09-18T08:15:13;95008.25;;;25.30;60.36
3968;BME280;9221;42.646;23.380;2023-09-18T08:17:39;95051.91;;;26.05;59.93
3968;BME280;9221;42.646;23.380;2023-09-18T08:20:06;95059.22;;;26.05;58.56
3968;BME280;9221;42.646;23.380;2023-09-18T08:22:37;95063.56;;;26.06;58.81
3968;BME280;9221;42.646;23.380;2023-09-18T08:25:03;95057.88;;;26.31;58.44
3968;BME280;9221;42.646;23.380;2023-09-18T08:27:29;95056.97;;;26.01;58.87
3968;BME280;9221;42.646;23.380;2023-09-18T08:29:54;95052.03;;;26.22;57.35
3968;BME280;9221;42.646;23.380;2023-09-18T08:32:19;95051.03;;;26.52;57.25
3968;BME280;9221;42.646;23.380;2023-09-18T08:34:45;95044.97;;;25.85;58.48
3968;BME280;9221;42.646;23.380;2023-09-18T08:37:10;95040.28;;;26.16;58.50
3968;BME280;9221;42.646;23.380;2023-09-18T08:39:36;95052.34;;;27.19;57.00
3968;BME280;9221;42.646;23.380;2023-09-18T08:42:04;95059.31;;;28.12;53.55
3968;BME280;9221;42.646;23.380;2023-09-18T08:44:30;95035.91;;;28.45;51.71
3968;BME280;9221;42.646;23.380;2023-09-18T08:46:56;95040.13;;;28.18;50.89
3968;BME280;9221;42.646;23.380;2023-09-18T08:49:23;95035.81;;;28.00;51.63
3968;BME280;9221;42.646;23.380;2023-09-18T08:51:51;95060.03;;;27.73;52.17
3968;BME280;9221;42.646;23.380;2023-09-18T08:54:17;95032.97;;;27.56;51.52
3968;BME280;9221;42.646;23.380;2023-09-18T08:56:42;95031.44;;;27.99;51.41
3968;BME280;9221;42.646;23.380;2023-09-18T08:59:08;95022.16;;;26.81;53.89
3968;BME280;9221;42.646;23.380;2023-09-18T09:01:33;95014.84;;;27.11;55.24
3968;BME280;9221;42.646;23.380;2023-09-18T09:03:59;95012.22;;;28.18;52.26
3968;BME280;9221;42.646;23.380;2023-09-18T09:06:26;95025.28;;;28.87;49.54
3968;BME280;9221;42.646;23.380;2023-09-18T09:08:51;95030.00;;;28.97;48.81
3968;BME280;9221;42.646;23.380;2023-09-18T09:11:17;95032.53;;;28.37;49.69
3968;BME280;9221;42.646;23.380;2023-09-18T09:13:44;95031.16;;;27.62;52.18
3968;BME280;9221;42.646;23.380;2023-09-18T09:16:11;95018.19;;;27.47;51.75
3968;BME280;9221;42.646;23.380;2023-09-18T09:18:47;95026.88;;;27.66;52.04
3968;BME280;9221;42.646;23.380;2023-09-18T09:21:13;95023.91;;;28.63;48.99
3968;BME280;9221;42.646;23.380;2023-09-18T09:23:52;95047.25;;;29.35;47.03
3968;BME280;9221;42.646;23.380;2023-09-18T09:26:20;94932.41;;;28.36;48.56
3968;BME280;9221;42.646;23.380;2023-09-18T09:28:46;95013.94;;;28.68;48.36
3968;BME280;9221;42.646;23.380;2023-09-18T09:31:24;95006.66;;;28.08;48.57
3968;BME280;9221;42.646;23.380;2023-09-18T09:33:51;95015.69;;;28.58;49.01
3968;BME280;9221;42.646;23.380;2023-09-18T09:36:20;95015.88;;;28.95;46.77
3968;BME280;9221;42.646;23.380;2023-09-18T09:38:46;94998.56;;;28.13;48.70
3968;BME280;9221;42.646;23.380;2023-09-18T09:41:15;95011.56;;;28.11;48.81
3968;BME280;9221;42.646;23.380;2023-09-18T09:43:42;95001.69;;;27.02;49.44
3968;BME280;9221;42.646;23.380;2023-09-18T09:46:15;95008.88;;;26.97;52.01
3968;BME280;9221;42.646;23.380;2023-09-18T09:49:01;95011.44;;;27.66;49.59
3968;BME280;9221;42.646;23.380;2023-09-18T09:51:27;94997.97;;;27.72;48.76
3968;BME280;9221;42.646;23.380;2023-09-18T09:53:54;94993.56;;;27.65;49.88
3968;BME280;9221;42.646;23.380;2023-09-18T09:56:19;94997.41;;;28.26;48.39
3968;BME280;9221;42.646;23.380;2023-09-18T09:59:03;94986.03;;;28.51;46.61
3968;BME280;9221;42.646;23.380;2023-09-18T10:01:36;94984.34;;;28.67;44.81
3968;BME280;9221;42.646;23.380;2023-09-18T10:04:15;94973.78;;;28.26;45.99
3968;BME280;9221;42.646;23.380;2023-09-18T10:06:49;95009.94;;;28.98;44.84
3968;BME280;9221;42.646;23.380;2023-09-18T10:09:16;94987.31;;;29.20;44.03
3968;BME280;9221;42.646;23.380;2023-09-18T10:11:45;94983.69;;;30.12;43.29
3968;BME280;9221;42.646;23.380;2023-09-18T10:14:16;95006.03;;;30.87;41.42
3968;BME280;9221;42.646;23.380;2023-09-18T10:16:47;95000.16;;;31.42;40.69
3968;BME280;9221;42.646;23.380;2023-09-18T10:21:59;94988.72;;;31.30;39.58
3968;BME280;9221;42.646;23.380;2023-09-18T10:24:33;94987.94;;;31.76;38.91
3968;BME280;9221;42.646;23.380;2023-09-18T10:27:01;94956.25;;;31.95;38.18
3968;BME280;9221;42.646;23.380;2023-09-18T10:29:32;94966.66;;;31.42;38.78
3968;BME280;9221;42.646;23.380;2023-09-18T10:31:58;94975.91;;;29.88;41.24
3968;BME280;9221;42.646;23.380;2023-09-18T10:34:24;94960.41;;;30.42;41.35
3968;BME280;9221;42.646;23.380;2023-09-18T10:36:52;94971.47;;;30.83;41.75
3968;BME280;9221;42.646;23.380;2023-09-18T10:39:17;94955.13;;;30.93;40.34
3968;BME280;9221;42.646;23.380;2023-09-18T10:41:51;94998.25;;;31.37;38.64
3968;BME280;9221;42.646;23.380;2023-09-18T10:44:18;94954.25;;;30.03;40.56
3968;BME280;9221;42.646;23.380;2023-09-18T10:46:48;94939.84;;;30.77;39.92
3968;BME280;9221;42.646;23.380;2023-09-18T10:49:15;94949.19;;;31.68;38.93
3968;BME280;9221;42.646;23.380;2023-09-18T10:51:41;94937.47;;;31.63;38.51
3968;BME280;9221;42.646;23.380;2023-09-18T10:54:11;94937.22;;;31.28;37.90
3968;BME280;9221;42.646;23.380;2023-09-18T10:56:40;94927.41;;;31.17;38.83
3968;BME280;9221;42.646;23.380;2023-09-18T10:59:07;94933.38;;;31.50;37.81
3968;BME280;9221;42.646;23.380;2023-09-18T11:01:34;94935.00;;;31.56;37.86
3968;BME280;9221;42.646;23.380;2023-09-18T11:04:03;94904.47;;;31.64;37.09
3968;BME280;9221;42.646;23.380;2023-09-18T11:09:30;94924.41;;;31.39;37.33
3968;BME280;9221;42.646;23.380;2023-09-18T11:14:29;94906.13;;;31.03;39.24
3968;BME280;9221;42.646;23.380;2023-09-18T11:17:06;94918.09;;;31.69;37.41
3968;BME280;9221;42.646;23.380;2023-09-18T11:20:08;94903.16;;;32.43;36.52
3968;BME280;9221;42.646;23.380;2023-09-18T11:22:47;94907.47;;;32.54;35.36
3968;BME280;9221;42.646;23.380;2023-09-18T11:25:29;94908.38;;;32.29;35.25
3968;BME280;9221;42.646;23.380;2023-09-18T11:28:00;94905.13;;;32.32;35.53
3968;BME280;9221;42.646;23.380;2023-09-18T11:30:28;94898.72;;;31.71;36.47
3968;BME280;9221;42.646;23.380;2023-09-18T11:32:54;94898.34;;;30.44;37.84
3968;BME280;9221;42.646;23.380;2023-09-18T11:35:21;94884.34;;;31.14;37.46
3968;BME280;9221;42.646;23.380;2023-09-18T11:37:47;94900.09;;;31.68;36.10
3968;BME280;9221;42.646;23.380;2023-09-18T11:40:32;94881.59;;;31.19;37.08
3968;BME280;9221;42.646;23.380;2023-09-18T11:43:26;94893.59;;;30.92;37.91
3968;BME280;9221;42.646;23.380;2023-09-18T11:46:01;94886.50;;;31.32;37.29
3968;BME280;9221;42.646;23.380;2023-09-18T11:48:29;94886.13;;;31.96;36.21
3968;BME280;9221;42.646;23.380;2023-09-18T11:50:59;94888.91;;;32.51;34.89
3968;BME280;9221;42.646;23.380;2023-09-18T11:53:28;94880.28;;;32.28;34.82
3968;BME280;9221;42.646;23.380;2023-09-18T11:55:54;94875.75;;;31.98;36.06
3968;BME280;9221;42.646;23.380;2023-09-18T11:58:21;94878.84;;;31.65;36.60
3968;BME280;9221;42.646;23.380;2023-09-18T12:00:53;94869.34;;;31.32;36.75
3968;BME280;9221;42.646;23.380;2023-09-18T12:05:56;94825.16;;;31.66;36.30
3968;BME280;9221;42.646;23.380;2023-09-18T12:08:23;94865.03;;;32.22;35.67
3968;BME280;9221;42.646;23.380;2023-09-18T12:10:52;94867.72;;;32.27;35.32
3968;BME280;9221;42.646;23.380;2023-09-18T12:13:18;94863.94;;;32.23;35.82
3968;BME280;9221;42.646;23.380;2023-09-18T12:15:44;94876.34;;;32.50;36.47
3968;BME280;9221;42.646;23.380;2023-09-18T12:18:10;94872.75;;;31.99;36.73
3968;BME280;9221;42.646;23.380;2023-09-18T12:20:48;94870.09;;;30.45;38.92
3968;BME280;9221;42.646;23.380;2023-09-18T12:23:15;94860.69;;;29.99;40.67
3968;BME280;9221;42.646;23.380;2023-09-18T12:25:41;94857.75;;;30.21;40.17
3968;BME280;9221;42.646;23.380;2023-09-18T12:28:09;94855.91;;;30.37;39.92
3968;BME280;9221;42.646;23.380;2023-09-18T12:30:34;94853.28;;;31.04;39.94
3968;BME280;9221;42.646;23.380;2023-09-18T12:33:00;94843.47;;;30.88;39.78
3968;BME280;9221;42.646;23.380;2023-09-18T12:35:26;94858.72;;;30.99;39.76
3968;BME280;9221;42.646;23.380;2023-09-18T12:37:56;94851.91;;;30.97;38.79
3968;BME280;9221;42.646;23.380;2023-09-18T12:40:22;94815.41;;;31.08;38.53
3968;BME280;9221;42.646;23.380;2023-09-18T12:42:49;94845.66;;;31.07;37.87
3968;BME280;9221;42.646;23.380;2023-09-18T12:45:15;94849.88;;;30.20;39.20
3968;BME280;9221;42.646;23.380;2023-09-18T12:47:41;94868.88;;;30.15;39.55
3968;BME280;9221;42.646;23.380;2023-09-18T12:50:07;94849.63;;;29.68;39.79
3968;BME280;9221;42.646;23.380;2023-09-18T12:52:32;94847.50;;;29.81;40.52
3968;BME280;9221;42.646;23.380;2023-09-18T12:54:58;94839.53;;;30.17;39.84
3968;BME280;9221;42.646;23.380;2023-09-18T12:57:26;94835.28;;;30.62;39.12
3968;BME280;9221;42.646;23.380;2023-09-18T12:59:52;94840.16;;;30.45;39.18
3968;BME280;9221;42.646;23.380;2023-09-18T13:02:19;94833.53;;;30.15;40.40
3968;BME280;9221;42.646;23.380;2023-09-18T13:04:52;94847.69;;;30.22;39.28
3968;BME280;9221;42.646;23.380;2023-09-18T13:07:17;94833.28;;;29.58;40.71
3968;BME280;9221;42.646;23.380;2023-09-18T13:10:01;94815.88;;;29.59;41.45
3968;BME280;9221;42.646;23.380;2023-09-18T13:15:09;94825.81;;;28.95;42.12
3968;BME280;9221;42.646;23.380;2023-09-18T13:17:39;94839.69;;;28.39;43.61
3968;BME280;9221;42.646;23.380;2023-09-18T13:20:15;94800.53;;;28.35;43.75
3968;BME280;9221;42.646;23.380;2023-09-18T13:22:42;94839.53;;;28.01;44.57
3968;BME280;9221;42.646;23.380;2023-09-18T13:25:09;94837.84;;;27.17;45.33